Blind Lake, Minnesota
Current Conditions -  °F | °C
As of 4:13 AM on Thursday 29 Jan 2015 (Local Time) from KPWC Reporting Station
Overcast Overcast  
Wind Chill: 15°   Ceiling: 1100
Heat Index: 27°   Visibility: 10mi
Dew Point: 23°   Wind: 15mph
Humidity: 86%   Direction: 330°NNW
Pressure: 30.05"   Gusts: 26mph
Location:  46.6535°N, 94.5389°W
Report Text: KPWC 291013Z AUTO 33013G23KT 10SM OVC011 M03/M05 A3005 RMK AO2
Loading
Personal Weather Stations






























Interactive Weather Map New forecast layout! Learn more

10-Day Weather Forecast

Advertisements
Track Severe Weather on mobile